Time;durP1;ratioP1;P1;durP2;ratioP2;P2;SDS_P1;SDS_P2;PMS_P1;PMS_P2;Temp;Humidity;BMP_temperature;BMP_pressure;BME280_temperature;BME280_humidity;BME280_pressure;Samples;Min_cycle;Max_cycle;Signal;HPM_P1;HPM_P2
2022/07/07 00:01:22;;;;;;;19.95;2.55;;;;;;;;;;4932095;28;20157;-65
2022/07/07 00:03:47;;;;;;;20.83;3.50;;;;;;;;;;4939885;28;20026;-64
2022/07/07 00:06:13;;;;;;;23.92;2.70;;;;;;;;;;4938283;28;20234;-65
2022/07/07 00:08:38;;;;;;;17.67;2.58;;;;;;;;;;4931560;28;20058;-64
2022/07/07 00:11:04;;;;;;;15.48;2.90;;;;;;;;;;4936740;28;20038;-65
2022/07/07 00:13:30;;;;;;;16.75;2.67;;;;;;;;;;4929569;28;20149;-63
2022/07/07 00:15:55;;;;;;;6.00;2.10;;;;;;;;;;4931165;28;20058;-63
2022/07/07 00:18:20;;;;;;;8.05;2.20;;;;;;;;;;4930481;28;20045;-64
2022/07/07 00:20:46;;;;;;;11.00;2.53;;;;;;;;;;4931027;28;20106;-65
2022/07/07 00:23:13;;;;;;;10.68;2.03;;;;;;;;;;4931305;28;20031;-66
2022/07/07 00:25:39;;;;;;;9.32;2.58;;;;;;;;;;4946225;28;20130;-66
2022/07/07 00:28:04;;;;;;;10.13;2.50;;;;;;;;;;4931635;28;20035;-66
2022/07/07 00:30:30;;;;;;;11.18;2.60;;;;;;;;;;4932677;28;20103;-63
2022/07/07 00:32:55;;;;;;;12.10;2.72;;;;;;;;;;4928819;28;20141;-65
2022/07/07 00:35:20;;;;;;;12.43;2.70;;;;;;;;;;4931435;28;20046;-65
2022/07/07 00:37:46;;;;;;;11.50;3.00;;;;;;;;;;4930873;28;20972;-65
2022/07/07 00:40:11;;;;;;;8.25;2.28;;;;;;;;;;4934243;28;20182;-65
2022/07/07 00:42:36;;;;;;;9.95;2.40;;;;;;;;;;4931338;28;20809;-64
2022/07/07 00:45:02;;;;;;;11.40;2.75;;;;;;;;;;4934582;28;20034;-63
2022/07/07 00:47:28;;;;;;;11.88;2.40;;;;;;;;;;4934889;28;20121;-64
2022/07/07 00:49:54;;;;;;;8.15;2.60;;;;;;;;;;4934062;28;20039;-65
2022/07/07 00:52:22;;;;;;;6.70;2.42;;;;;;;;;;4935804;28;20030;-64
2022/07/07 00:54:55;;;;;;;13.18;2.58;;;;;;;;;;4938961;28;20046;-67
2022/07/07 00:57:21;;;;;;;14.65;2.92;;;;;;;;;;4931906;28;20031;-65
2022/07/07 00:59:46;;;;;;;14.43;2.58;;;;;;;;;;4935544;28;20145;-65
2022/07/07 01:02:12;;;;;;;8.32;2.50;;;;;;;;;;4933847;28;20182;-65
2022/07/07 01:04:37;;;;;;;10.35;3.08;;;;;;;;;;4935718;28;20038;-64
2022/07/07 01:07:05;;;;;;;11.32;3.15;;;;;;;;;;4933786;28;21049;-65
2022/07/07 01:09:34;;;;;;;10.68;2.85;;;;;;;;;;4933974;28;20063;-64
2022/07/07 01:11:59;;;;;;;16.65;3.05;;;;;;;;;;4936640;28;20038;-65
2022/07/07 01:14:24;;;;;;;14.23;2.85;;;;;;;;;;4934070;28;20141;-65
2022/07/07 01:16:53;;;;;;;9.68;3.00;;;;;;;;;;4933718;28;20034;-65
2022/07/07 01:19:19;;;;;;;11.13;2.83;;;;;;;;;;4937807;28;20039;-65
2022/07/07 01:21:52;;;;;;;15.40;3.30;;;;;;;;;;4936718;28;20031;-66
2022/07/07 01:24:17;;;;;;;12.50;3.22;;;;;;;;;;4932309;28;20050;-65
2022/07/07 01:26:43;;;;;;;11.27;3.00;;;;;;;;;;4945488;28;22191;-65
2022/07/07 01:29:08;;;;;;;9.43;2.80;;;;;;;;;;4931078;28;20091;-65
2022/07/07 01:31:34;;;;;;;13.27;2.90;;;;;;;;;;4932133;28;20066;-66
2022/07/07 01:33:59;;;;;;;15.63;3.05;;;;;;;;;;4931900;28;20042;-66
2022/07/07 01:36:24;;;;;;;10.82;3.10;;;;;;;;;;4932906;28;20149;-65
2022/07/07 01:38:49;;;;;;;11.55;2.90;;;;;;;;;;4931508;28;20829;-65
2022/07/07 01:41:15;;;;;;;16.38;3.65;;;;;;;;;;4932950;28;20035;-63
2022/07/07 01:43:42;;;;;;;21.17;3.30;;;;;;;;;;4931444;28;20050;-65
2022/07/07 01:46:08;;;;;;;19.08;4.00;;;;;;;;;;4946531;28;20055;-65
2022/07/07 01:48:33;;;;;;;16.58;3.28;;;;;;;;;;4931345;28;20145;-65
2022/07/07 01:50:58;;;;;;;21.90;3.90;;;;;;;;;;4930995;28;20783;-65
2022/07/07 01:53:24;;;;;;;16.50;4.50;;;;;;;;;;4931337;28;20089;-64
2022/07/07 01:55:49;;;;;;;19.10;3.85;;;;;;;;;;4930419;28;20974;-64
2022/07/07 01:58:15;;;;;;;6.75;1.70;;;;;;;;;;4945633;28;20042;-64
2022/07/07 02:00:40;;;;;;;14.10;2.50;;;;;;;;;;4930991;28;20097;-63
2022/07/07 02:03:06;;;;;;;17.08;2.58;;;;;;;;;;4931871;28;20122;-65
2022/07/07 02:05:31;;;;;;;17.52;2.63;;;;;;;;;;4931111;28;20049;-63
2022/07/07 02:07:58;;;;;;;13.40;2.40;;;;;;;;;;4932599;28;20049;-64
2022/07/07 02:13:08;;;;;;;14.48;2.90;;;;;;;;;;4931646;28;20034;-65
2022/07/07 02:15:36;;;;;;;13.77;2.42;;;;;;;;;;4933719;28;20471;-64
2022/07/07 02:18:01;;;;;;;17.23;2.72;;;;;;;;;;4932918;28;20038;-63
2022/07/07 02:20:26;;;;;;;11.98;2.45;;;;;;;;;;4932634;28;20702;-63
2022/07/07 02:22:52;;;;;;;17.92;2.97;;;;;;;;;;4932380;28;20113;-63
2022/07/07 02:25:17;;;;;;;16.70;2.60;;;;;;;;;;4936909;28;20046;-64
2022/07/07 02:27:43;;;;;;;11.02;2.40;;;;;;;;;;4932483;28;20063;-66
2022/07/07 02:30:08;;;;;;;10.52;2.30;;;;;;;;;;4932981;28;20035;-65
2022/07/07 02:32:34;;;;;;;15.63;2.97;;;;;;;;;;4932888;28;20045;-66
2022/07/07 02:35:01;;;;;;;14.02;2.35;;;;;;;;;;4932685;28;20059;-67
2022/07/07 02:37:26;;;;;;;11.02;2.50;;;;;;;;;;4946390;28;20035;-67
2022/07/07 02:39:53;;;;;;;18.38;2.70;;;;;;;;;;4933055;28;20070;-66
2022/07/07 02:42:18;;;;;;;14.63;2.95;;;;;;;;;;4933597;28;20062;-66
2022/07/07 02:44:44;;;;;;;12.27;2.47;;;;;;;;;;4932581;28;20035;-66
2022/07/07 02:47:09;;;;;;;14.95;2.53;;;;;;;;;;4932611;28;20145;-65
2022/07/07 02:49:34;;;;;;;19.08;3.45;;;;;;;;;;4932900;28;20145;-65
2022/07/07 02:51:59;;;;;;;16.30;2.60;;;;;;;;;;4932707;28;20038;-65
2022/07/07 02:54:25;;;;;;;15.98;2.30;;;;;;;;;;4933137;28;20041;-64
2022/07/07 02:56:50;;;;;;;11.35;2.45;;;;;;;;;;4930900;28;20042;-64
2022/07/07 02:59:15;;;;;;;7.75;1.70;;;;;;;;;;4932509;28;20137;-64
2022/07/07 03:01:41;;;;;;;13.65;2.10;;;;;;;;;;4946645;28;21202;-65
2022/07/07 03:04:06;;;;;;;14.52;1.58;;;;;;;;;;4929769;28;20041;-65
2022/07/07 03:06:31;;;;;;;11.27;1.40;;;;;;;;;;4938541;28;20038;-64
2022/07/07 03:08:59;;;;;;;13.75;2.03;;;;;;;;;;4932367;28;21051;-65
2022/07/07 03:11:24;;;;;;;13.20;1.90;;;;;;;;;;4932982;28;20026;-65
2022/07/07 03:13:49;;;;;;;12.32;1.70;;;;;;;;;;4931048;28;20034;-66
2022/07/07 03:16:15;;;;;;;15.82;2.45;;;;;;;;;;4931964;28;20054;-64
2022/07/07 03:18:40;;;;;;;14.70;2.78;;;;;;;;;;4931934;28;20086;-65
2022/07/07 03:21:05;;;;;;;19.30;2.28;;;;;;;;;;4946568;28;20041;-65
2022/07/07 03:23:31;;;;;;;17.25;2.75;;;;;;;;;;4931982;28;20150;-65
2022/07/07 03:25:56;;;;;;;15.55;2.80;;;;;;;;;;4947568;28;20085;-67
2022/07/07 03:28:21;;;;;;;17.77;2.53;;;;;;;;;;4931867;28;20117;-66
2022/07/07 03:30:46;;;;;;;21.67;3.00;;;;;;;;;;4946299;28;20117;-65
2022/07/07 03:33:12;;;;;;;13.70;2.20;;;;;;;;;;4932310;28;20822;-66
2022/07/07 03:35:38;;;;;;;14.20;2.40;;;;;;;;;;4921651;28;20046;-65
2022/07/07 03:38:03;;;;;;;19.83;2.40;;;;;;;;;;4931489;28;20041;-65
2022/07/07 03:40:29;;;;;;;20.48;2.45;;;;;;;;;;4930878;28;20034;-65
2022/07/07 03:42:54;;;;;;;18.23;2.60;;;;;;;;;;4930661;28;20031;-68
2022/07/07 03:45:21;;;;;;;16.92;2.72;;;;;;;;;;4924454;28;20042;-66
2022/07/07 03:47:50;;;;;;;19.15;2.75;;;;;;;;;;4930004;28;20033;-65
2022/07/07 03:50:15;;;;;;;17.60;2.88;;;;;;;;;;4932051;28;20042;-66
2022/07/07 03:52:40;;;;;;;17.23;3.08;;;;;;;;;;4931498;28;20034;-66
2022/07/07 03:55:08;;;;;;;25.73;3.78;;;;;;;;;;4945865;28;20825;-66
2022/07/07 03:57:34;;;;;;;19.33;3.13;;;;;;;;;;4930835;28;20114;-64
2022/07/07 04:00:00;;;;;;;19.08;3.25;;;;;;;;;;4932549;28;20047;-64
2022/07/07 04:02:25;;;;;;;14.45;2.55;;;;;;;;;;4931603;28;20161;-64
2022/07/07 04:04:51;;;;;;;23.10;2.97;;;;;;;;;;4931779;28;20035;-64
2022/07/07 04:07:20;;;;;;;21.48;3.05;;;;;;;;;;4931311;28;20043;-63
2022/07/07 04:09:48;;;;;;;21.02;2.97;;;;;;;;;;4930921;28;20081;-65
2022/07/07 04:12:13;;;;;;;15.25;2.47;;;;;;;;;;4932454;28;20589;-64
2022/07/07 04:14:38;;;;;;;24.35;3.55;;;;;;;;;;4944945;28;20044;-65
2022/07/07 04:17:04;;;;;;;23.52;3.15;;;;;;;;;;4931711;28;20042;-62
2022/07/07 04:19:29;;;;;;;24.75;3.20;;;;;;;;;;4930738;28;20038;-63
2022/07/07 04:21:57;;;;;;;22.05;3.10;;;;;;;;;;4933986;28;20081;-64
2022/07/07 04:24:22;;;;;;;21.13;3.30;;;;;;;;;;4930587;28;20031;-64
2022/07/07 04:26:48;;;;;;;18.40;2.85;;;;;;;;;;4931991;28;20034;-64
2022/07/07 04:29:14;;;;;;;20.90;2.92;;;;;;;;;;4931182;28;20109;-63
2022/07/07 04:31:44;;;;;;;20.15;2.88;;;;;;;;;;4930754;28;20129;-64
2022/07/07 04:34:12;;;;;;;17.50;2.58;;;;;;;;;;4934059;28;21279;-65
2022/07/07 04:36:38;;;;;;;16.50;3.50;;;;;;;;;;4935167;28;20042;-64
2022/07/07 04:39:03;;;;;;;17.92;2.97;;;;;;;;;;4930677;28;20967;-63
2022/07/07 04:41:29;;;;;;;16.77;3.22;;;;;;;;;;4930169;28;20057;-63
2022/07/07 04:43:54;;;;;;;22.23;3.35;;;;;;;;;;4931020;28;20102;-64
2022/07/07 04:46:19;;;;;;;17.40;2.33;;;;;;;;;;4928995;28;20035;-65
2022/07/07 04:48:47;;;;;;;15.77;2.70;;;;;;;;;;4945188;28;20109;-64
2022/07/07 04:51:12;;;;;;;14.57;2.10;;;;;;;;;;4930894;28;20045;-64
2022/07/07 04:53:38;;;;;;;17.05;2.25;;;;;;;;;;4930417;28;20062;-66
2022/07/07 04:56:04;;;;;;;13.80;2.58;;;;;;;;;;4930221;28;20157;-65
2022/07/07 04:58:34;;;;;;;13.07;2.70;;;;;;;;;;4931040;28;20034;-65
2022/07/07 05:00:59;;;;;;;12.45;2.28;;;;;;;;;;4930891;28;21356;-65
2022/07/07 05:03:24;;;;;;;15.85;2.33;;;;;;;;;;4944570;28;20130;-66
2022/07/07 05:05:50;;;;;;;23.77;3.88;;;;;;;;;;4930605;28;20073;-66
2022/07/07 05:08:15;;;;;;;17.17;3.00;;;;;;;;;;4944389;28;20031;-65
2022/07/07 05:10:40;;;;;;;18.95;3.35;;;;;;;;;;4929554;28;20344;-66
2022/07/07 05:13:06;;;;;;;13.65;2.05;;;;;;;;;;4938341;28;20222;-65
2022/07/07 05:15:31;;;;;;;14.75;2.00;;;;;;;;;;4930226;28;20058;-66
2022/07/07 05:17:57;;;;;;;17.83;2.10;;;;;;;;;;4929240;28;20050;-64
2022/07/07 05:20:22;;;;;;;15.23;2.67;;;;;;;;;;4930473;28;20140;-66
2022/07/07 05:22:47;;;;;;;12.57;2.63;;;;;;;;;;4927898;28;20039;-65
2022/07/07 05:25:13;;;;;;;17.02;2.63;;;;;;;;;;4928254;28;20046;-66
2022/07/07 05:27:38;;;;;;;16.42;3.65;;;;;;;;;;4922701;28;20031;-65
2022/07/07 05:30:05;;;;;;;17.83;3.90;;;;;;;;;;4931320;28;21113;-66
2022/07/07 05:32:30;;;;;;;18.98;2.92;;;;;;;;;;4934424;28;20042;-63
2022/07/07 05:34:58;;;;;;;20.25;3.20;;;;;;;;;;4925856;28;22135;-66
2022/07/07 05:37:25;;;;;;;15.27;2.53;;;;;;;;;;4945430;28;22307;-63
2022/07/07 05:39:51;;;;;;;15.82;2.55;;;;;;;;;;4933076;28;20034;-65
2022/07/07 05:42:16;;;;;;;19.85;3.00;;;;;;;;;;4933876;28;20811;-65
2022/07/07 05:44:42;;;;;;;20.13;3.10;;;;;;;;;;4946334;28;20030;-65
2022/07/07 05:47:07;;;;;;;24.75;3.00;;;;;;;;;;4947641;28;22324;-64
2022/07/07 05:49:32;;;;;;;16.73;2.75;;;;;;;;;;4932505;28;20554;-64
2022/07/07 05:51:57;;;;;;;19.92;3.35;;;;;;;;;;4931533;28;20038;-64
2022/07/07 05:54:23;;;;;;;22.67;3.95;;;;;;;;;;4933180;28;20209;-65
2022/07/07 05:56:48;;;;;;;19.45;3.53;;;;;;;;;;4933188;28;20042;-65
2022/07/07 05:59:13;;;;;;;19.10;3.55;;;;;;;;;;4933486;28;20090;-65
2022/07/07 06:01:41;;;;;;;21.08;3.20;;;;;;;;;;4938650;28;20035;-63
2022/07/07 06:04:08;;;;;;;23.10;3.45;;;;;;;;;;4933928;28;20122;-65
2022/07/07 06:06:33;;;;;;;26.17;4.05;;;;;;;;;;4933164;28;20034;-63
2022/07/07 06:08:58;;;;;;;22.58;3.75;;;;;;;;;;4934251;28;20105;-64
2022/07/07 06:11:24;;;;;;;15.25;2.80;;;;;;;;;;4932249;28;20049;-64
2022/07/07 06:13:50;;;;;;;19.35;2.90;;;;;;;;;;4932154;28;20046;-65
2022/07/07 06:16:15;;;;;;;22.08;3.75;;;;;;;;;;4930509;28;20046;-64
2022/07/07 06:18:40;;;;;;;15.10;2.65;;;;;;;;;;4933023;28;20181;-63
2022/07/07 06:21:06;;;;;;;14.52;2.05;;;;;;;;;;4931223;28;20802;-64
2022/07/07 06:23:31;;;;;;;8.25;1.63;;;;;;;;;;4937009;28;20038;-63
2022/07/07 06:25:56;;;;;;;14.30;2.40;;;;;;;;;;4946772;28;20226;-65
2022/07/07 06:28:22;;;;;;;17.38;2.08;;;;;;;;;;4931640;28;20164;-64
2022/07/07 06:30:47;;;;;;;15.30;2.20;;;;;;;;;;4927490;28;20061;-64
2022/07/07 06:33:12;;;;;;;21.70;2.63;;;;;;;;;;4918851;28;20042;-64
2022/07/07 06:35:40;;;;;;;16.30;3.25;;;;;;;;;;4927909;28;20054;-64
2022/07/07 06:38:05;;;;;;;19.23;3.42;;;;;;;;;;4927412;28;20042;-63
2022/07/07 06:40:30;;;;;;;27.65;4.35;;;;;;;;;;4925795;28;20045;-64
2022/07/07 06:42:56;;;;;;;18.83;3.33;;;;;;;;;;4931501;28;20122;-64
2022/07/07 06:45:23;;;;;;;22.30;3.38;;;;;;;;;;4943687;28;20330;-62
2022/07/07 06:47:49;;;;;;;17.58;2.72;;;;;;;;;;4929107;28;20027;-63
2022/07/07 06:50:14;;;;;;;23.25;2.70;;;;;;;;;;4927587;28;20039;-63
2022/07/07 06:52:41;;;;;;;15.95;2.45;;;;;;;;;;4942332;28;20674;-64
2022/07/07 06:55:07;;;;;;;20.58;3.00;;;;;;;;;;4928255;28;20482;-64
2022/07/07 06:57:33;;;;;;;17.25;2.95;;;;;;;;;;4926680;28;20151;-63
2022/07/07 06:59:58;;;;;;;13.65;2.80;;;;;;;;;;4928350;28;20651;-64
2022/07/07 07:02:25;;;;;;;20.38;2.40;;;;;;;;;;4925915;28;20041;-64
2022/07/07 07:04:51;;;;;;;14.18;2.50;;;;;;;;;;4931966;28;20086;-62
2022/07/07 07:07:16;;;;;;;18.73;2.90;;;;;;;;;;4945309;28;20034;-63
2022/07/07 07:09:42;;;;;;;22.88;2.75;;;;;;;;;;4937362;28;20038;-62
2022/07/07 07:12:07;;;;;;;24.83;2.83;;;;;;;;;;4933836;28;20035;-62
2022/07/07 07:14:33;;;;;;;16.73;1.98;;;;;;;;;;4946547;28;20141;-64
2022/07/07 07:17:00;;;;;;;14.35;2.38;;;;;;;;;;4945700;28;20066;-64
2022/07/07 07:19:25;;;;;;;16.48;2.35;;;;;;;;;;4936139;28;20638;-64
2022/07/07 07:21:51;;;;;;;17.15;2.47;;;;;;;;;;4945688;28;20046;-64
2022/07/07 07:24:17;;;;;;;18.27;2.88;;;;;;;;;;4932146;28;20062;-63
2022/07/07 07:26:42;;;;;;;15.90;2.22;;;;;;;;;;4934783;28;20049;-62
2022/07/07 07:29:07;;;;;;;18.05;2.55;;;;;;;;;;4945582;28;20030;-65
2022/07/07 07:31:33;;;;;;;14.30;2.45;;;;;;;;;;4931290;28;20070;-64
2022/07/07 07:33:58;;;;;;;23.90;2.95;;;;;;;;;;4930344;28;20043;-65
2022/07/07 07:36:24;;;;;;;10.45;1.63;;;;;;;;;;4927695;28;20054;-65
2022/07/07 07:38:50;;;;;;;13.45;1.77;;;;;;;;;;4928495;28;20045;-63
2022/07/07 07:41:17;;;;;;;17.80;2.10;;;;;;;;;;4928003;28;20030;-64
2022/07/07 07:43:42;;;;;;;14.30;2.67;;;;;;;;;;4925853;28;20739;-65
2022/07/07 07:46:07;;;;;;;19.45;3.00;;;;;;;;;;4926117;28;20073;-65
2022/07/07 07:48:35;;;;;;;18.00;3.17;;;;;;;;;;4928262;28;20158;-63
2022/07/07 07:51:00;;;;;;;19.52;3.28;;;;;;;;;;4926542;28;20352;-64
2022/07/07 07:53:26;;;;;;;19.30;2.70;;;;;;;;;;4927208;28;20558;-66
2022/07/07 07:55:53;;;;;;;21.48;3.45;;;;;;;;;;4925479;28;20061;-65
2022/07/07 07:58:18;;;;;;;29.80;4.55;;;;;;;;;;4929456;28;20342;-66
2022/07/07 08:00:44;;;;;;;18.80;3.28;;;;;;;;;;4926332;28;20035;-64
2022/07/07 08:03:11;;;;;;;13.57;2.33;;;;;;;;;;4927865;28;20035;-67
2022/07/07 08:05:36;;;;;;;17.08;2.85;;;;;;;;;;4927647;28;20058;-66
2022/07/07 08:08:02;;;;;;;15.40;3.00;;;;;;;;;;4926442;28;20050;-66
2022/07/07 08:10:27;;;;;;;25.48;3.70;;;;;;;;;;4924770;28;20049;-66
2022/07/07 08:12:53;;;;;;;24.23;3.50;;;;;;;;;;4926232;28;20123;-65
2022/07/07 08:15:18;;;;;;;21.83;3.47;;;;;;;;;;4932379;28;20518;-65
2022/07/07 08:17:48;;;;;;;17.45;2.30;;;;;;;;;;4926506;28;21544;-67
2022/07/07 08:20:14;;;;;;;15.93;2.22;;;;;;;;;;4914147;28;20523;-64
2022/07/07 08:22:39;;;;;;;18.15;3.15;;;;;;;;;;4941488;28;20797;-65
2022/07/07 08:25:05;;;;;;;24.48;3.20;;;;;;;;;;4924378;28;20042;-65
2022/07/07 08:27:30;;;;;;;15.32;2.97;;;;;;;;;;4925837;28;20100;-65
2022/07/07 08:29:55;;;;;;;21.73;3.50;;;;;;;;;;4927247;28;20493;-64
2022/07/07 08:32:21;;;;;;;17.90;3.33;;;;;;;;;;4931355;28;20273;-65
2022/07/07 08:34:46;;;;;;;29.58;4.10;;;;;;;;;;4926586;28;20068;-65
2022/07/07 08:37:11;;;;;;;19.50;2.85;;;;;;;;;;4932377;28;20086;-65
2022/07/07 08:39:37;;;;;;;21.30;2.28;;;;;;;;;;4927896;28;20054;-65
2022/07/07 08:42:04;;;;;;;23.63;3.30;;;;;;;;;;4926092;28;20268;-64
2022/07/07 08:44:29;;;;;;;21.17;3.22;;;;;;;;;;4931525;28;20607;-63
2022/07/07 08:46:54;;;;;;;16.25;2.30;;;;;;;;;;4925574;28;20698;-65
2022/07/07 08:49:20;;;;;;;17.73;3.03;;;;;;;;;;4926002;28;20027;-65
2022/07/07 08:51:45;;;;;;;23.25;2.97;;;;;;;;;;4927465;28;21040;-66
2022/07/07 08:54:14;;;;;;;23.52;3.00;;;;;;;;;;4926342;28;20387;-67
2022/07/07 08:56:40;;;;;;;17.52;2.22;;;;;;;;;;4924682;28;20102;-65
2022/07/07 08:59:08;;;;;;;16.33;2.88;;;;;;;;;;4926225;28;20494;-66
2022/07/07 09:01:33;;;;;;;25.27;3.63;;;;;;;;;;4940974;28;20312;-64
2022/07/07 09:03:59;;;;;;;14.18;2.90;;;;;;;;;;4927417;28;20288;-68
2022/07/07 09:06:24;;;;;;;21.88;2.80;;;;;;;;;;4930470;28;20256;-67
2022/07/07 09:08:50;;;;;;;23.98;2.65;;;;;;;;;;4928647;28;20625;-65
2022/07/07 09:11:15;;;;;;;21.35;3.28;;;;;;;;;;4936921;28;20035;-66
2022/07/07 09:13:41;;;;;;;17.35;3.03;;;;;;;;;;4929058;28;20134;-65
2022/07/07 09:16:13;;;;;;;15.98;2.65;;;;;;;;;;4938607;28;20053;-66
2022/07/07 09:18:40;;;;;;;15.98;3.20;;;;;;;;;;4928574;28;20082;-65
2022/07/07 09:21:23;;;;;;;25.83;3.15;;;;;;;;;;4929124;28;20488;-67
2022/07/07 09:23:53;;;;;;;19.08;3.13;;;;;;;;;;4930121;28;20030;-68
2022/07/07 09:26:38;;;;;;;24.67;3.45;;;;;;;;;;4929326;28;20035;-65
2022/07/07 09:29:07;;;;;;;26.67;3.70;;;;;;;;;;4929908;28;20065;-65
2022/07/07 09:31:54;;;;;;;30.70;3.80;;;;;;;;;;4928947;28;20565;-66
2022/07/07 09:34:22;;;;;;;25.80;4.22;;;;;;;;;;4927106;28;20760;-66
2022/07/07 09:39:41;;;;;;;24.67;3.60;;;;;;;;;;4930206;28;20150;-66
2022/07/07 09:42:26;;;;;;;25.27;3.58;;;;;;;;;;4928872;28;20039;-64
2022/07/07 09:44:51;;;;;;;;;;;;;;;;;;4929844;28;20113;-64
2022/07/07 09:47:18;;;;;;;15.60;2.80;;;;;;;;;;4928484;28;19925;-66
2022/07/07 09:49:43;;;;;;;24.05;3.55;;;;;;;;;;4928544;28;20046;-66
2022/07/07 09:52:17;;;;;;;28.17;3.38;;;;;;;;;;4929953;28;20054;-66
2022/07/07 09:54:49;;;;;;;22.15;3.65;;;;;;;;;;4929286;28;20035;-66
2022/07/07 09:57:14;;;;;;;;;;;;;;;;;;4929301;28;20082;-64
2022/07/07 09:59:41;;;;;;;13.20;2.50;;;;;;;;;;4942845;28;20037;-64
2022/07/07 10:02:08;;;;;;;14.88;2.53;;;;;;;;;;4928163;28;20061;-65
2022/07/07 10:04:34;;;;;;;23.95;3.50;;;;;;;;;;4934112;28;20640;-64
2022/07/07 10:07:00;;;;;;;30.13;4.05;;;;;;;;;;4929985;28;20794;-64
2022/07/07 10:09:26;;;;;;;18.08;2.80;;;;;;;;;;4929129;28;20035;-65
2022/07/07 10:11:52;;;;;;;13.90;2.50;;;;;;;;;;4929756;28;20043;-65
2022/07/07 10:14:21;;;;;;;20.10;3.50;;;;;;;;;;4929272;28;20348;-64
2022/07/07 10:16:50;;;;;;;22.08;3.28;;;;;;;;;;4928810;28;20069;-65
2022/07/07 10:19:17;;;;;;;26.58;3.53;;;;;;;;;;4925437;28;21056;-65
2022/07/07 10:21:43;;;;;;;23.27;3.53;;;;;;;;;;4929203;28;20392;-65
2022/07/07 10:24:08;;;;;;;22.60;3.25;;;;;;;;;;4944188;28;20549;-64
2022/07/07 10:26:38;;;;;;;19.20;3.75;;;;;;;;;;4928555;28;20043;-63
2022/07/07 10:29:05;;;;;;;25.80;4.68;;;;;;;;;;4928464;28;20759;-63
2022/07/07 10:31:31;;;;;;;22.13;4.07;;;;;;;;;;4929895;28;20041;-64
2022/07/07 10:33:59;;;;;;;28.83;4.25;;;;;;;;;;4929152;28;20496;-67
2022/07/07 10:36:24;;;;;;;22.27;3.70;;;;;;;;;;4928858;28;21131;-65
2022/07/07 10:38:52;;;;;;;24.27;3.90;;;;;;;;;;4941554;28;20499;-64
2022/07/07 10:41:25;;;;;;;20.92;3.38;;;;;;;;;;4928961;28;20476;-66
2022/07/07 10:43:58;;;;;;;27.27;3.90;;;;;;;;;;4928559;28;20551;-67
2022/07/07 10:46:24;;;;;;;15.55;2.97;;;;;;;;;;4928512;28;20361;-67
2022/07/07 10:48:55;;;;;;;24.70;3.20;;;;;;;;;;4928385;28;20027;-67
2022/07/07 10:51:30;;;;;;;21.83;2.83;;;;;;;;;;4928915;28;20193;-65
2022/07/07 10:53:55;;;;;;;26.20;3.42;;;;;;;;;;4927980;28;20031;-65
2022/07/07 10:56:21;;;;;;;24.67;3.35;;;;;;;;;;4928872;28;20515;-65
2022/07/07 10:58:54;;;;;;;22.27;3.08;;;;;;;;;;4930622;28;20242;-66
2022/07/07 11:01:20;;;;;;;19.25;2.65;;;;;;;;;;4927193;28;20347;-65
2022/07/07 11:03:46;;;;;;;22.27;2.75;;;;;;;;;;4928146;28;20038;-64
2022/07/07 11:06:13;;;;;;;19.83;2.78;;;;;;;;;;4926755;28;20117;-64
2022/07/07 11:08:41;;;;;;;36.17;3.92;;;;;;;;;;4926427;28;20034;-65
2022/07/07 11:11:09;;;;;;;27.17;3.75;;;;;;;;;;4925070;28;20541;-63
2022/07/07 11:13:39;;;;;;;36.60;4.60;;;;;;;;;;4928379;28;20312;-63
2022/07/07 11:16:14;;;;;;;20.73;4.00;;;;;;;;;;4932095;28;20058;-64
2022/07/07 11:18:41;;;;;;;20.63;3.42;;;;;;;;;;4926566;28;20551;-64
2022/07/07 11:21:08;;;;;;;33.33;4.35;;;;;;;;;;4925635;28;20129;-65
2022/07/07 11:24:09;;;;;;;25.92;4.30;;;;;;;;;;4925130;28;20302;-65
2022/07/07 11:26:35;;;;;;;43.45;4.97;;;;;;;;;;4904323;28;20035;-64
2022/07/07 11:29:03;;;;;;;23.98;4.07;;;;;;;;;;4923016;28;20101;-64
2022/07/07 11:31:28;;;;;;;40.42;4.50;;;;;;;;;;4930418;28;20042;-63
2022/07/07 11:33:54;;;;;;;34.15;4.22;;;;;;;;;;4928796;28;20593;-63
2022/07/07 11:36:21;;;;;;;40.75;4.93;;;;;;;;;;4925733;28;20066;-64
2022/07/07 11:38:51;;;;;;;38.25;4.90;;;;;;;;;;4925844;28;20338;-63
2022/07/07 11:41:16;;;;;;;25.55;4.03;;;;;;;;;;4925472;28;20508;-64
2022/07/07 11:43:54;;;;;;;22.38;3.88;;;;;;;;;;4926221;28;21882;-65
2022/07/07 11:46:22;;;;;;;26.48;3.50;;;;;;;;;;4924960;28;20112;-67
2022/07/07 11:48:47;;;;;;;25.85;3.30;;;;;;;;;;4926936;28;20782;-67
2022/07/07 11:51:13;;;;;;;19.33;2.60;;;;;;;;;;4925630;28;20300;-67
2022/07/07 11:53:39;;;;;;;29.67;3.90;;;;;;;;;;4925054;28;20622;-66
2022/07/07 11:56:06;;;;;;;17.67;2.83;;;;;;;;;;4925009;28;20047;-66
2022/07/07 11:58:31;;;;;;;29.95;4.07;;;;;;;;;;4924252;28;20495;-65
2022/07/07 12:00:57;;;;;;;24.27;3.45;;;;;;;;;;4939207;28;20031;-65
2022/07/07 12:03:30;;;;;;;31.58;3.95;;;;;;;;;;4938462;28;21807;-66
2022/07/07 12:05:55;;;;;;;23.48;3.05;;;;;;;;;;4922910;28;20535;-64
2022/07/07 12:08:21;;;;;;;24.00;2.78;;;;;;;;;;4923944;28;20113;-64
2022/07/07 12:10:51;;;;;;;20.55;2.95;;;;;;;;;;4924362;28;20338;-64
2022/07/07 12:13:16;;;;;;;32.78;4.47;;;;;;;;;;4923111;28;20054;-65
2022/07/07 12:15:43;;;;;;;24.90;3.55;;;;;;;;;;4923630;28;20061;-65
2022/07/07 12:18:10;;;;;;;26.08;3.40;;;;;;;;;;4924497;28;20291;-66
2022/07/07 12:20:38;;;;;;;27.45;3.17;;;;;;;;;;4924252;28;20031;-65
2022/07/07 12:23:04;;;;;;;23.27;3.25;;;;;;;;;;4932196;28;20201;-65
2022/07/07 12:25:33;;;;;;;25.85;3.38;;;;;;;;;;4924687;28;20500;-64
2022/07/07 12:27:58;;;;;;;31.80;4.07;;;;;;;;;;4937881;28;20116;-64
2022/07/07 12:30:25;;;;;;;24.58;3.10;;;;;;;;;;4924173;28;20042;-63
2022/07/07 12:32:50;;;;;;;21.67;2.70;;;;;;;;;;4924265;28;20039;-65
2022/07/07 12:35:44;;;;;;;18.45;2.90;;;;;;;;;;4924066;28;20304;-64
2022/07/07 12:38:13;;;;;;;25.30;2.67;;;;;;;;;;4924433;28;20116;-64
2022/07/07 12:40:40;;;;;;;16.35;2.45;;;;;;;;;;4928642;28;20517;-64
2022/07/07 12:43:07;;;;;;;18.25;2.50;;;;;;;;;;4928289;28;20551;-65
2022/07/07 12:45:33;;;;;;;26.70;2.80;;;;;;;;;;4927540;28;20113;-65
2022/07/07 12:47:58;;;;;;;27.23;3.15;;;;;;;;;;4926035;28;20499;-68
2022/07/07 12:50:24;;;;;;;18.98;3.20;;;;;;;;;;4927980;28;21170;-65
2022/07/07 12:53:03;;;;;;;20.02;2.50;;;;;;;;;;4935477;28;20035;-65
2022/07/07 12:55:31;;;;;;;22.65;3.53;;;;;;;;;;4927803;28;20081;-65
2022/07/07 12:58:03;;;;;;;25.65;3.42;;;;;;;;;;4927245;28;20516;-63
2022/07/07 13:00:28;;;;;;;19.33;2.47;;;;;;;;;;4926910;28;20035;-65
2022/07/07 13:02:54;;;;;;;25.90;3.42;;;;;;;;;;4929225;28;20520;-67
2022/07/07 13:05:19;;;;;;;22.38;3.58;;;;;;;;;;4925588;28;20109;-66
2022/07/07 13:07:45;;;;;;;26.17;3.80;;;;;;;;;;4931339;28;20038;-67
2022/07/07 13:10:11;;;;;;;25.10;3.78;;;;;;;;;;4959529;28;20132;-68
2022/07/07 13:12:36;;;;;;;20.50;3.38;;;;;;;;;;4944803;28;20041;-67
2022/07/07 13:15:02;;;;;;;24.30;3.72;;;;;;;;;;4943257;28;20038;-67
2022/07/07 13:17:28;;;;;;;24.67;3.22;;;;;;;;;;4929274;28;20039;-68
2022/07/07 13:19:53;;;;;;;22.98;3.60;;;;;;;;;;4928355;28;20233;-67
2022/07/07 13:22:18;;;;;;;29.70;3.30;;;;;;;;;;4936407;28;20056;-67
2022/07/07 13:24:44;;;;;;;25.33;3.25;;;;;;;;;;4943962;28;20125;-67
2022/07/07 13:27:09;;;;;;;19.35;3.83;;;;;;;;;;4930605;28;20126;-66
2022/07/07 13:29:34;;;;;;;19.40;3.13;;;;;;;;;;4937092;28;20188;-67
2022/07/07 13:32:00;;;;;;;26.00;4.15;;;;;;;;;;4943770;28;20034;-68
2022/07/07 13:34:25;;;;;;;24.08;3.63;;;;;;;;;;4932888;28;20041;-69
2022/07/07 13:36:53;;;;;;;29.88;3.97;;;;;;;;;;4929884;28;20435;-67
2022/07/07 13:39:19;;;;;;;17.15;2.92;;;;;;;;;;4932739;28;20551;-65
2022/07/07 13:41:44;;;;;;;24.60;3.58;;;;;;;;;;4943027;28;20538;-66
2022/07/07 13:44:12;;;;;;;22.38;3.22;;;;;;;;;;4946071;28;20043;-66
2022/07/07 13:46:37;;;;;;;29.83;3.40;;;;;;;;;;4933559;28;20038;-65
2022/07/07 13:49:02;;;;;;;21.80;3.22;;;;;;;;;;4944472;28;20128;-68
2022/07/07 13:51:30;;;;;;;22.58;3.58;;;;;;;;;;4927259;28;20578;-66
2022/07/07 13:53:55;;;;;;;23.58;3.33;;;;;;;;;;4929272;28;20038;-68
2022/07/07 13:56:23;;;;;;;29.85;4.18;;;;;;;;;;4929981;28;20097;-67
2022/07/07 13:58:51;;;;;;;22.60;4.00;;;;;;;;;;4929793;28;20045;-66
2022/07/07 14:01:16;;;;;;;24.77;4.22;;;;;;;;;;4946450;28;20970;-68
2022/07/07 14:03:44;;;;;;;19.85;3.70;;;;;;;;;;4930562;28;20043;-71
2022/07/07 14:06:12;;;;;;;26.55;3.75;;;;;;;;;;4931330;28;20045;-69
2022/07/07 14:08:37;;;;;;;24.65;3.95;;;;;;;;;;4936687;28;20039;-67
2022/07/07 14:11:05;;;;;;;26.85;3.90;;;;;;;;;;4930173;28;20038;-69
2022/07/07 14:13:32;;;;;;;16.75;3.38;;;;;;;;;;4931080;28;20201;-67
2022/07/07 14:15:57;;;;;;;22.48;3.60;;;;;;;;;;4931787;28;20270;-68
2022/07/07 14:18:23;;;;;;;36.00;3.92;;;;;;;;;;4931835;28;20115;-70
2022/07/07 14:20:50;;;;;;;26.88;4.35;;;;;;;;;;4930318;28;20125;-71
2022/07/07 14:23:17;;;;;;;19.60;3.60;;;;;;;;;;4946023;28;20140;-69
2022/07/07 14:25:43;;;;;;;17.15;3.40;;;;;;;;;;4930766;28;20653;-70
2022/07/07 14:28:08;;;;;;;28.52;4.25;;;;;;;;;;4931491;28;20041;-68
2022/07/07 14:30:36;;;;;;;19.75;3.47;;;;;;;;;;4931600;28;20042;-68
2022/07/07 14:33:03;;;;;;;31.88;3.80;;;;;;;;;;4930057;28;20034;-69